SBJU/JDO METAR and TAF weather

Enter ICAO airport designator
Station Type Date Time Source
SBJU METAR 2022/01/26 20:00 UTC NOAA

SBJU 262000Z 03003KT 9999 FEW020 BKN100 31/21 Q1011


Station Type Date Time Source
SBJU Decoded METAR 2022/01/26 20:00 UTC NOAA

Station name not available
Jan 26, 2022 - 03:00 PM EST / 2022.01.26 2000 UTC
Wind: from the NNE (030 degrees) at 3 MPH (3 KT):0
Visibility: greater than 7 mile(s):0
Sky conditions: mostly cloudy
Temperature: 87 F (31 C)
Dew Point: 69 F (21 C)
Relative Humidity: 55%
Pressure (altimeter): 29.85 in. Hg (1011 hPa)
ob: SBJU 262000Z 03003KT 9999 FEW020 BKN100 31/21 Q1011
cycle: 20

Station Type Date Time Source
SBJU TAF 2011/11/01 00:05 UTC NOAA

TAF SBJU 012200Z 0200/0212 00000KT 9999 SCT020 TX28/0200Z TN24/0207Z
BECMG 0210/0212 06005KT
RMK PCE

Example: see airport list